createdAt,value
2022-12-04T00:00:28.844Z,65.70
2022-12-04T00:02:55.488Z,65.47
2022-12-04T00:05:22.488Z,70.93
2022-12-04T00:07:49.009Z,74.63
2022-12-04T00:10:15.643Z,73.13
2022-12-04T00:15:26.802Z,73.00
2022-12-04T00:17:53.784Z,77.10
2022-12-04T00:20:20.984Z,76.47
2022-12-04T00:22:47.618Z,81.53
2022-12-04T00:25:14.319Z,79.17
2022-12-04T00:27:40.821Z,77.07
2022-12-04T00:30:07.888Z,76.30
2022-12-04T00:32:35.876Z,68.23
2022-12-04T00:35:02.404Z,75.60
2022-12-04T00:37:28.934Z,80.77
2022-12-04T00:42:39.685Z,74.90
2022-12-04T00:45:06.581Z,81.50
2022-12-04T00:47:33.247Z,77.60
2022-12-04T00:49:59.796Z,93.07
2022-12-04T00:52:28.479Z,77.00
2022-12-04T00:54:55.002Z,81.23
2022-12-04T00:57:23.845Z,73.30
2022-12-04T00:59:50.509Z,79.23
2022-12-04T01:02:17.118Z,80.13
2022-12-04T01:04:43.865Z,80.33
2022-12-04T01:07:10.464Z,77.50
2022-12-04T01:09:37.058Z,74.60
2022-12-04T01:12:03.587Z,81.93
2022-12-04T01:14:31.215Z,83.43
2022-12-04T01:16:57.878Z,67.70
2022-12-04T01:19:24.415Z,67.63
2022-12-04T01:21:51.583Z,77.13
2022-12-04T01:24:18.129Z,75.83
2022-12-04T01:26:44.914Z,74.10
2022-12-04T01:29:12.356Z,70.63
2022-12-04T01:31:39.037Z,74.93
2022-12-04T01:34:05.626Z,68.43
2022-12-04T01:39:16.213Z,69.10
2022-12-04T01:41:42.852Z,70.47
2022-12-04T01:44:19.794Z,69.77
2022-12-04T01:46:47.081Z,71.30
2022-12-04T01:49:15.448Z,68.30
2022-12-04T01:51:42.912Z,69.27
2022-12-04T01:56:58.355Z,64.90
2022-12-04T02:02:14.636Z,66.73
2022-12-04T02:04:42.652Z,61.67
2022-12-04T02:07:09.445Z,63.57
2022-12-04T02:09:36.119Z,65.33
2022-12-04T02:12:12.472Z,68.60
2022-12-04T02:14:42.602Z,68.90
2022-12-04T02:17:21.021Z,67.63
2022-12-04T02:19:54.141Z,69.27
2022-12-04T02:25:41.001Z,69.43
2022-12-04T02:28:14.704Z,60.93
2022-12-04T02:30:41.487Z,65.60
2022-12-04T02:33:13.983Z,66.70
2022-12-04T02:35:41.857Z,59.93
2022-12-04T02:38:14.523Z,62.77
2022-12-04T02:40:59.854Z,58.33
2022-12-04T02:46:21.945Z,61.37
2022-12-04T02:48:49.552Z,60.70
2022-12-04T02:51:16.570Z,58.17
2022-12-04T02:53:48.041Z,60.93
2022-12-04T02:56:15.893Z,61.23
2022-12-04T02:58:42.372Z,62.90
2022-12-04T03:01:19.734Z,59.43
2022-12-04T03:03:51.312Z,63.27
2022-12-04T03:06:17.812Z,58.20
2022-12-04T03:08:45.672Z,61.83
2022-12-04T03:11:12.222Z,61.73
2022-12-04T03:13:39.583Z,61.47
2022-12-04T03:16:07.916Z,63.33
2022-12-04T03:18:39.281Z,69.17
2022-12-04T03:21:10.245Z,62.10
2022-12-04T03:23:44.823Z,65.90
2022-12-04T03:29:09.753Z,64.03
2022-12-04T03:31:40.524Z,68.07
2022-12-04T03:34:07.590Z,66.57
2022-12-04T03:36:37.913Z,75.07
2022-12-04T03:39:24.825Z,66.07
2022-12-04T03:42:00.751Z,70.57
2022-12-04T03:44:56.732Z,66.53
2022-12-04T03:47:29.139Z,67.87
2022-12-04T03:52:50.384Z,68.83
2022-12-04T03:55:20.112Z,62.90
2022-12-04T03:57:46.620Z,67.87
2022-12-04T04:00:13.958Z,67.73
2022-12-04T04:05:26.245Z,67.50
2022-12-04T04:08:20.413Z,68.23
2022-12-04T04:10:47.600Z,71.67
2022-12-04T04:13:34.227Z,70.10
2022-12-04T04:16:19.515Z,69.87
2022-12-04T04:19:04.690Z,69.30
2022-12-04T04:21:50.911Z,64.50
2022-12-04T04:27:13.984Z,67.27
2022-12-04T04:29:40.566Z,74.13
2022-12-04T04:32:14.872Z,70.83
2022-12-04T04:37:40.916Z,64.50
2022-12-04T04:40:14.682Z,69.37
2022-12-04T04:42:44.213Z,58.20
2022-12-04T04:45:13.926Z,69.07
2022-12-04T04:47:54.290Z,60.30
2022-12-04T04:50:21.487Z,67.13
2022-12-04T04:52:49.227Z,66.67
2022-12-04T04:55:16.419Z,66.77
2022-12-04T04:57:42.955Z,62.13
2022-12-04T05:00:15.700Z,66.40
2022-12-04T05:02:42.375Z,69.83
2022-12-04T05:05:09.652Z,62.20
2022-12-04T05:07:36.228Z,62.40
2022-12-04T05:10:02.770Z,65.83
2022-12-04T05:12:29.515Z,69.83
2022-12-04T05:14:56.101Z,59.60
2022-12-04T05:17:22.703Z,60.03
2022-12-04T05:19:56.880Z,69.37
2022-12-04T05:22:25.505Z,68.20
2022-12-04T05:24:52.053Z,64.03
2022-12-04T05:30:02.380Z,71.90
2022-12-04T05:35:13.546Z,77.87
2022-12-04T05:40:24.227Z,69.10
2022-12-04T05:42:51.026Z,71.63
2022-12-04T05:45:17.745Z,73.40
2022-12-04T05:47:44.444Z,66.43
2022-12-04T05:50:11.827Z,65.10
2022-12-04T05:52:38.467Z,66.60
2022-12-04T05:55:05.258Z,65.40
2022-12-04T05:57:31.759Z,63.43
2022-12-04T05:59:58.623Z,60.27
2022-12-04T06:02:26.933Z,63.07
2022-12-04T06:04:53.695Z,59.93
2022-12-04T06:07:20.202Z,62.80
2022-12-04T06:09:46.885Z,66.90
2022-12-04T06:12:13.484Z,65.37
2022-12-04T06:14:40.223Z,59.27
2022-12-04T06:17:06.976Z,66.80
2022-12-04T06:19:33.585Z,69.33
2022-12-04T06:22:00.137Z,64.27
2022-12-04T06:24:26.731Z,64.13
2022-12-04T06:29:45.972Z,56.80
2022-12-04T06:32:17.769Z,58.00
2022-12-04T06:34:49.798Z,63.67
2022-12-04T06:37:16.756Z,59.03
2022-12-04T06:39:43.360Z,58.00
2022-12-04T06:42:10.509Z,60.87
2022-12-04T06:44:37.060Z,57.93
2022-12-04T06:47:03.601Z,59.37
2022-12-04T06:49:30.120Z,60.93
2022-12-04T06:51:57.070Z,59.10
2022-12-04T06:54:23.640Z,56.97
2022-12-04T06:56:50.462Z,56.17
2022-12-04T07:02:00.977Z,59.97
2022-12-04T07:04:27.565Z,62.73
2022-12-04T07:06:54.707Z,57.53
2022-12-04T07:09:21.224Z,64.87
2022-12-04T07:14:32.351Z,64.23
2022-12-04T07:19:42.969Z,62.10
2022-12-04T07:22:09.463Z,66.20
2022-12-04T07:24:36.443Z,66.90
2022-12-04T07:27:03.142Z,71.63
2022-12-04T07:29:29.784Z,75.73
2022-12-04T07:31:56.433Z,64.93
2022-12-04T07:34:23.485Z,72.17
2022-12-04T07:36:50.307Z,69.73
2022-12-04T07:39:16.882Z,73.77
2022-12-04T07:41:43.424Z,68.67
2022-12-04T07:46:54.510Z,70.77
2022-12-04T07:49:21.068Z,74.17
2022-12-04T07:51:47.665Z,70.17
2022-12-04T07:54:14.312Z,72.07
2022-12-04T07:56:40.903Z,67.70
2022-12-04T07:59:07.705Z,74.43
2022-12-04T08:01:34.462Z,68.77
2022-12-04T08:06:45.656Z,74.23
2022-12-04T08:09:12.856Z,68.67
2022-12-04T08:11:39.576Z,71.73
2022-12-04T08:14:06.259Z,70.87
2022-12-04T08:16:33.098Z,72.77
2022-12-04T08:18:59.762Z,74.87
2022-12-04T08:21:27.411Z,68.13
2022-12-04T08:26:39.165Z,73.10
2022-12-04T08:31:50.098Z,77.70
2022-12-04T08:37:01.700Z,79.13
2022-12-04T08:39:29.070Z,71.23
2022-12-04T08:41:57.322Z,87.20
2022-12-04T08:44:24.161Z,78.33
2022-12-04T08:46:50.970Z,84.87
2022-12-04T08:49:19.219Z,83.53
2022-12-04T08:51:47.427Z,73.87
2022-12-04T08:56:58.762Z,80.60
2022-12-04T09:02:10.636Z,74.77
2022-12-04T09:04:37.840Z,77.17
2022-12-04T09:07:04.402Z,78.70
2022-12-04T09:09:30.932Z,78.93
2022-12-04T09:11:57.762Z,67.97
2022-12-04T09:14:26.050Z,70.00
2022-12-04T09:16:53.268Z,62.73
2022-12-04T09:19:20.221Z,64.43
2022-12-04T09:21:47.392Z,70.53
2022-12-04T09:24:15.011Z,65.27
2022-12-04T09:26:43.439Z,71.13
2022-12-04T09:29:10.635Z,69.87
2022-12-04T09:31:37.763Z,75.80
2022-12-04T09:34:04.637Z,67.60
2022-12-04T09:36:31.438Z,70.00
2022-12-04T09:38:58.108Z,81.17
2022-12-04T09:41:41.496Z,69.23
2022-12-04T09:44:11.036Z,76.27
2022-12-04T09:46:39.443Z,84.50
2022-12-04T09:49:07.819Z,79.63
2022-12-04T09:51:35.249Z,77.67
2022-12-04T09:54:11.186Z,76.27
2022-12-04T09:56:37.848Z,77.70
2022-12-04T09:59:10.832Z,74.87
2022-12-04T10:01:45.503Z,70.07
2022-12-04T10:04:13.445Z,74.93
2022-12-04T10:06:46.162Z,70.50
2022-12-04T10:09:20.603Z,70.47
2022-12-04T10:12:07.521Z,69.17
2022-12-04T10:14:52.358Z,68.03
2022-12-04T10:17:37.882Z,70.10
2022-12-04T10:20:12.649Z,69.03
2022-12-04T10:25:40.561Z,70.60
2022-12-04T10:31:04.317Z,77.10
2022-12-04T10:33:33.764Z,68.90
2022-12-04T10:36:00.487Z,63.90
2022-12-04T10:38:46.110Z,66.30
2022-12-04T10:41:27.191Z,61.93
2022-12-04T10:43:53.868Z,69.70
2022-12-04T10:46:27.476Z,71.03
2022-12-04T10:49:04.948Z,79.13
2022-12-04T10:51:33.858Z,70.57
2022-12-04T10:54:00.372Z,68.60
2022-12-04T10:56:27.177Z,67.60
2022-12-04T10:59:00.753Z,65.57
2022-12-04T11:01:28.366Z,62.93
2022-12-04T11:04:06.330Z,65.00
2022-12-04T11:06:33.049Z,59.87
2022-12-04T11:08:59.723Z,61.63
2022-12-04T11:11:27.857Z,69.57
2022-12-04T11:14:01.518Z,56.57
2022-12-04T11:16:39.169Z,53.63
2022-12-04T11:19:22.497Z,53.77
2022-12-04T11:21:49.484Z,55.30
2022-12-04T11:24:19.246Z,62.73
2022-12-04T11:26:46.539Z,62.17
2022-12-04T11:29:14.424Z,55.40
2022-12-04T11:31:42.379Z,56.30
2022-12-04T11:34:09.301Z,57.03
2022-12-04T11:36:40.690Z,50.53
2022-12-04T11:39:13.449Z,54.00
2022-12-04T11:41:40.242Z,55.70
2022-12-04T11:44:07.243Z,57.97
2022-12-04T11:46:34.350Z,55.43
2022-12-04T11:49:03.626Z,61.47
2022-12-04T11:51:39.603Z,55.63
2022-12-04T11:54:25.199Z,60.37
2022-12-04T11:57:04.850Z,59.27
2022-12-04T11:59:41.045Z,62.30
2022-12-04T12:02:27.155Z,63.77
2022-12-04T12:05:12.283Z,64.87
2022-12-04T12:07:39.118Z,66.80
2022-12-04T12:10:32.270Z,65.00
2022-12-04T12:13:02.923Z,56.07
2022-12-04T12:15:41.811Z,66.57
2022-12-04T12:18:22.483Z,63.80
2022-12-04T12:20:55.314Z,72.27
2022-12-04T12:23:22.084Z,67.13
2022-12-04T12:25:52.350Z,54.27
2022-12-04T12:28:37.452Z,51.50
2022-12-04T12:31:19.152Z,66.60
2022-12-04T12:33:53.311Z,65.33
2022-12-04T12:36:21.940Z,58.40
2022-12-04T12:38:56.025Z,74.97
2022-12-04T12:41:37.036Z,62.33
2022-12-04T12:44:05.267Z,68.40
2022-12-04T12:46:35.938Z,62.23
2022-12-04T12:49:09.465Z,68.57
2022-12-04T12:51:46.254Z,61.50
2022-12-04T12:54:22.420Z,59.70
2022-12-04T12:56:54.155Z,61.70
2022-12-04T12:59:22.963Z,58.00
2022-12-04T13:02:02.977Z,60.77
2022-12-04T13:04:32.570Z,59.23
2022-12-04T13:07:22.026Z,60.73
2022-12-04T13:09:50.729Z,59.63
2022-12-04T13:12:17.359Z,63.77
2022-12-04T13:14:48.792Z,63.70
2022-12-04T13:17:36.215Z,53.70
2022-12-04T13:20:10.117Z,56.30
2022-12-04T13:23:06.709Z,52.53
2022-12-04T13:25:39.453Z,56.43
2022-12-04T13:28:24.741Z,58.57
2022-12-04T13:30:58.459Z,57.80
2022-12-04T13:33:39.596Z,57.87
2022-12-04T13:36:15.704Z,54.00
2022-12-04T13:38:42.713Z,56.10
2022-12-04T13:41:10.296Z,55.03
2022-12-04T13:43:37.453Z,54.87
2022-12-04T13:46:07.715Z,53.07
2022-12-04T13:48:39.729Z,55.00
2022-12-04T13:51:24.877Z,52.67
2022-12-04T13:54:01.387Z,55.17
2022-12-04T13:56:28.890Z,58.97
2022-12-04T13:58:59.263Z,52.10
2022-12-04T14:01:28.695Z,54.43
2022-12-04T14:03:57.559Z,61.37
2022-12-04T14:06:41.375Z,56.07
2022-12-04T14:09:27.759Z,59.80
2022-12-04T14:11:57.767Z,54.80
2022-12-04T14:14:25.729Z,53.97
2022-12-04T14:16:52.492Z,56.90
2022-12-04T14:19:30.069Z,58.57
2022-12-04T14:21:57.089Z,54.17
2022-12-04T14:24:32.889Z,55.37
2022-12-04T14:27:15.087Z,61.07
2022-12-04T14:30:10.354Z,56.30
2022-12-04T14:32:37.289Z,54.47
2022-12-04T14:35:03.968Z,59.00
2022-12-04T14:37:30.713Z,49.97
2022-12-04T14:39:57.875Z,56.93
2022-12-04T14:42:25.610Z,67.40
2022-12-04T14:44:53.556Z,60.40
2022-12-04T14:47:29.699Z,62.10
2022-12-04T14:50:11.753Z,66.07
2022-12-04T14:52:40.971Z,61.40
2022-12-04T14:55:33.940Z,64.03
2022-12-04T14:58:31.560Z,61.47
2022-12-04T15:01:05.969Z,62.60
2022-12-04T15:03:37.226Z,64.07
2022-12-04T15:06:05.815Z,59.27
2022-12-04T15:08:32.645Z,63.63
2022-12-04T15:11:20.272Z,71.23
2022-12-04T15:13:48.182Z,65.20
2022-12-04T15:16:21.750Z,69.97
2022-12-04T15:18:58.222Z,67.00
2022-12-04T15:21:25.099Z,73.50
2022-12-04T15:23:51.688Z,72.87
2022-12-04T15:26:19.051Z,69.93
2022-12-04T15:28:48.268Z,72.00
2022-12-04T15:31:20.920Z,72.87
2022-12-04T15:33:47.979Z,73.10
2022-12-04T15:36:16.829Z,69.23
2022-12-04T15:38:43.759Z,76.50
2022-12-04T15:41:28.509Z,76.13
2022-12-04T15:43:55.164Z,77.63
2022-12-04T15:46:22.431Z,76.53
2022-12-04T15:48:49.033Z,71.97
2022-12-04T15:51:16.008Z,75.40
2022-12-04T15:53:44.189Z,69.93
2022-12-04T15:56:17.208Z,73.93
2022-12-04T15:58:51.591Z,71.70
2022-12-04T16:04:02.520Z,83.50
2022-12-04T16:06:31.519Z,80.30
2022-12-04T16:09:13.305Z,75.83
2022-12-04T16:11:40.166Z,75.30
2022-12-04T16:14:09.623Z,79.00
2022-12-04T16:16:39.591Z,75.60
2022-12-04T16:19:08.637Z,78.30
2022-12-04T16:21:35.234Z,72.10
2022-12-04T16:24:02.725Z,77.27
2022-12-04T16:26:29.291Z,75.00
2022-12-04T16:28:55.923Z,75.97
2022-12-04T16:31:24.492Z,74.40
2022-12-04T16:33:51.208Z,74.97
2022-12-04T16:36:17.995Z,74.40
2022-12-04T16:38:44.842Z,73.03
2022-12-04T16:41:18.116Z,77.17
2022-12-04T16:43:44.767Z,68.30
2022-12-04T16:46:15.586Z,70.97
2022-12-04T16:48:42.796Z,82.37
2022-12-04T16:51:16.334Z,76.43
2022-12-04T16:53:43.184Z,72.37
2022-12-04T16:56:10.158Z,72.60
2022-12-04T16:58:36.993Z,76.70
2022-12-04T17:01:04.276Z,71.47
2022-12-04T17:03:32.631Z,74.50
2022-12-04T17:06:00.584Z,75.63
2022-12-04T17:08:28.070Z,80.33
2022-12-04T17:10:54.954Z,74.53
2022-12-04T17:13:23.283Z,74.83
2022-12-04T17:15:49.998Z,66.80
2022-12-04T17:18:21.349Z,67.53
2022-12-04T17:20:51.001Z,71.53
2022-12-04T17:23:18.199Z,74.00
2022-12-04T17:25:45.134Z,78.07
2022-12-04T17:28:12.008Z,81.10
2022-12-04T17:33:25.360Z,73.70
2022-12-04T17:35:54.807Z,70.33
2022-12-04T17:38:21.878Z,79.33
2022-12-04T17:40:58.770Z,73.07
2022-12-04T17:43:25.822Z,79.60
2022-12-04T17:45:55.100Z,64.90
2022-12-04T17:48:23.409Z,69.37
2022-12-04T17:50:50.031Z,81.43
2022-12-04T17:53:16.604Z,72.63
2022-12-04T17:55:43.214Z,83.23
2022-12-04T17:58:10.018Z,72.67
2022-12-04T18:00:36.821Z,74.33
2022-12-04T18:03:03.633Z,78.40
2022-12-04T18:05:30.600Z,92.77
2022-12-04T18:07:57.568Z,74.67
2022-12-04T18:13:09.157Z,96.07
2022-12-04T18:15:36.135Z,88.40
2022-12-04T18:18:03.013Z,82.30
2022-12-04T18:20:29.786Z,91.00
2022-12-04T18:22:56.803Z,91.70
2022-12-04T18:25:23.726Z,90.20
2022-12-04T18:27:51.494Z,90.80
2022-12-04T18:30:18.345Z,87.17
2022-12-04T18:32:47.996Z,78.07
2022-12-04T18:35:15.781Z,69.93
2022-12-04T18:37:43.140Z,70.83
2022-12-04T18:40:11.387Z,81.20
2022-12-04T18:42:38.613Z,87.93
2022-12-04T18:45:14.103Z,89.83
2022-12-04T18:47:41.233Z,98.53
2022-12-04T18:50:08.740Z,83.43
2022-12-04T18:55:24.145Z,103.03
2022-12-04T18:57:51.084Z,84.80
2022-12-04T19:00:17.780Z,113.67
2022-12-04T19:02:47.360Z,98.53
2022-12-04T19:08:02.248Z,132.70
2022-12-04T19:13:14.560Z,94.97
2022-12-04T19:15:42.136Z,104.90
2022-12-04T19:18:09.238Z,80.10
2022-12-04T19:20:36.253Z,86.00
2022-12-04T19:23:05.243Z,115.23
2022-12-04T19:25:31.854Z,101.77
2022-12-04T19:27:58.494Z,86.00
2022-12-04T19:30:25.091Z,86.77
2022-12-04T19:32:51.990Z,69.93
2022-12-04T19:35:18.889Z,107.23
2022-12-04T19:37:52.402Z,68.30
2022-12-04T19:40:19.708Z,94.93
2022-12-04T19:42:46.851Z,101.00
2022-12-04T19:45:13.554Z,93.30
2022-12-04T19:47:42.150Z,86.83
2022-12-04T19:50:09.243Z,115.97
2022-12-04T19:52:37.785Z,129.83
2022-12-04T19:55:04.879Z,104.43
2022-12-04T19:57:35.050Z,107.53
2022-12-04T20:00:02.344Z,109.33
2022-12-04T20:05:24.358Z,73.27
2022-12-04T20:07:52.683Z,82.67
2022-12-04T20:10:21.331Z,80.83
2022-12-04T20:12:49.300Z,86.57
2022-12-04T20:15:17.746Z,108.00
2022-12-04T20:17:45.905Z,88.73
2022-12-04T20:20:14.942Z,94.83
2022-12-04T20:22:41.718Z,132.70
2022-12-04T20:25:08.672Z,93.17
2022-12-04T20:27:35.698Z,84.93
2022-12-04T20:30:03.878Z,78.57
2022-12-04T20:32:33.320Z,88.37
2022-12-04T20:35:02.050Z,113.17
2022-12-04T20:37:33.275Z,81.37
2022-12-04T20:40:02.571Z,104.27
2022-12-04T20:42:33.507Z,56.60
2022-12-04T20:47:45.617Z,74.20
2022-12-04T20:50:14.031Z,64.00
2022-12-04T20:52:40.678Z,63.73
2022-12-04T20:55:08.319Z,60.10
2022-12-04T21:00:20.336Z,54.67
2022-12-04T21:05:31.744Z,50.30
2022-12-04T21:10:42.810Z,47.17
2022-12-04T21:16:15.201Z,56.53
2022-12-04T21:18:42.428Z,54.10
2022-12-04T21:21:09.157Z,58.30
2022-12-04T21:23:36.483Z,49.60
2022-12-04T21:26:03.516Z,49.40
2022-12-04T21:28:31.723Z,49.47
2022-12-04T21:31:05.832Z,47.57
2022-12-04T21:33:33.085Z,51.97
2022-12-04T21:36:03.527Z,50.10
2022-12-04T21:38:34.195Z,46.67
2022-12-04T21:41:01.243Z,47.53
2022-12-04T21:43:31.536Z,42.70
2022-12-04T21:46:07.411Z,42.50
2022-12-04T21:48:36.539Z,51.13
2022-12-04T21:51:21.203Z,47.30
2022-12-04T21:53:55.128Z,46.30
2022-12-04T21:56:22.924Z,54.00
2022-12-04T21:58:50.453Z,50.47
2022-12-04T22:01:17.646Z,46.87
2022-12-04T22:06:29.724Z,41.63
2022-12-04T22:11:43.889Z,36.13
2022-12-04T22:16:56.109Z,45.33
2022-12-04T22:22:12.744Z,49.57
2022-12-04T22:27:26.279Z,59.73
2022-12-04T22:29:54.262Z,47.50
2022-12-04T22:32:22.594Z,47.40
2022-12-04T22:34:49.763Z,60.30
2022-12-04T22:37:16.889Z,59.00
2022-12-04T22:39:44.123Z,72.27
2022-12-04T22:42:12.892Z,77.90
2022-12-04T22:47:25.773Z,55.90
2022-12-04T22:52:37.393Z,48.67
2022-12-04T22:57:50.519Z,43.30
2022-12-04T23:00:17.568Z,41.10
2022-12-04T23:02:45.183Z,40.30
2022-12-04T23:05:12.295Z,41.33
2022-12-04T23:07:42.044Z,40.20
2022-12-04T23:10:12.132Z,48.27
2022-12-04T23:12:39.676Z,45.17
2022-12-04T23:15:07.065Z,47.30
2022-12-04T23:17:33.774Z,45.57
2022-12-04T23:20:00.584Z,47.50
2022-12-04T23:22:27.168Z,44.63
2022-12-04T23:24:53.652Z,45.63
2022-12-04T23:30:04.392Z,40.17
2022-12-04T23:35:14.633Z,37.40
2022-12-04T23:37:41.140Z,43.63
2022-12-04T23:40:08.055Z,42.63
2022-12-04T23:42:34.628Z,46.33
2022-12-04T23:45:01.835Z,39.87
2022-12-04T23:47:28.382Z,36.43
2022-12-04T23:49:55.189Z,35.70
2022-12-04T23:52:22.273Z,37.17
2022-12-04T23:54:48.754Z,35.80
2022-12-04T23:57:15.253Z,39.73
2022-12-04T23:59:41.788Z,36.90
